• Join FlightAware (Why Join?)
  • Login
  • US Flag 
12:40PM EDT


 

Airport Tracker/Info


-or-


 

Live Flight TrackerFlight Track Log ✈ N16112 ✈ 22-Apr-2013 ✈ KMCI - KIAH

Flight Track Log - Related Links

Times and Time Zones

All times are in EDT time to prevent confusion due to time zone crossing. See the N16112 flight status page for this flight to view local times or setup timezone preferences in your user account.

Time Position Orientation Groundspeed Altitude Reporting Facility
EDT Latitude Longitude Course Direction KTS MPH feet Rate Location/Type
05:08PM 39.3000 -94.7333 199° South 162 186 1,500  Level Kansas City TRACON
05:08PM 39.2500 -94.7500 194° South 167 192 3,200 2,340 Climbing Kansas City TRACON
05:09PM 39.2000 -94.7667 194° South 211 243 5,800 2,040 Climbing Kansas City TRACON
05:10PM 39.1908 -94.7733 209° Southwest 207 238 5,900 600 Climbing Kansas City Center
05:11PM 38.9479 -94.8396 195° South  Level FlightAware Approximate
05:11PM 39.1167 -94.8003 196° South 245 282 6,600  Level Kansas City Center
05:12PM 38.8592 -94.8756 199° South  Level FlightAware Approximate
05:12PM 39.0519 -94.8222 195° South 250 288 8,000  Level Kansas City Center
05:13PM 38.7712 -94.9147 199° South  Level FlightAware Approximate
05:13PM 38.9864 -94.8456 195° South 253 291 9,400  Level Kansas City Center
05:14PM 38.9058 -94.8739 195° South 270 311 10,600 1,080 Climbing Kansas City Center
05:15PM 38.8194 -94.9028 195° South 327 376 11,700 1,260 Climbing Kansas City Center
05:16PM 38.7158 -94.9389 195° South 342 394 13,300 1,500 Climbing Kansas City Center
05:17PM 38.6261 -94.9706 195° South 348 400 14,800 1,560 Climbing Kansas City Center
05:18PM 38.5200 -95.0069 195° South 352 405 16,600 1,560 Climbing Kansas City Center
05:19PM 38.4289 -95.0375 195° South 352 405 18,000 1,500 Climbing Kansas City Center
05:20PM 38.3231 -95.0761 196° South 353 406 19,700 1,500 Climbing Kansas City Center
05:21PM 38.2339 -95.1031 193° South 348 400 21,200 1,440 Climbing Kansas City Center
05:22PM 38.1444 -95.1369 197° South 347 399 22,700 1,500 Climbing Kansas City Center
05:23PM 38.0403 -95.1733 195° South 347 399 24,400 1,500 Climbing Kansas City Center
05:24PM 37.9519 -95.2028 195° South 343 395 25,800 1,200 Climbing Kansas City Center
05:25PM 37.8597 -95.2381 197° South 350 403 26,900 1,080 Climbing Kansas City Center
05:26PM 37.7389 -95.2761 194° South 368 423 28,100 1,080 Climbing Kansas City Center
05:27PM 37.6369 -95.3100 195° South 376 433 29,200 960 Climbing Kansas City Center
05:28PM 37.5328 -95.3447 195° South 384 442 30,100 840 Climbing Kansas City Center
05:29PM 37.4253 -95.3831 196° South 395 455 31,000 840 Climbing Kansas City Center
05:30PM 37.3175 -95.4178 194° South 399 459 31,900 900 Climbing Kansas City Center
05:31PM 37.2075 -95.4544 195° South 406 467 32,900 480 Climbing Kansas City Center
05:32PM 37.0725 -95.4989 195° South 413 475 33,000  Climbing Kansas City Center
05:34PM 36.9544 -95.5386 195° South 430 495 33,000  Level Kansas City Center
05:35PM 36.8322 -95.5792 195° South 448 516 33,000 480 Level Kansas City Center
05:36PM 36.7125 -95.6189 195° South 448 516 34,000 960 Climbing Kansas City Center
05:37PM 36.5989 -95.6558 195° South 437 503 35,000 660 Climbing Kansas City Center
05:38PM 36.4842 -95.6931 195° South 428 493 35,400 480 Climbing Kansas City Center
05:39PM 36.3453 -95.7394 195° South 430 495 36,000 240 Climbing Kansas City Center
05:40PM 36.2317 -95.7767 195° South 432 497 36,000  Level Kansas City Center
05:41PM 36.1128 -95.8172 195° South 440 506 36,000  Level Kansas City Center
05:42PM 35.9958 -95.8583 196° South 439 505 36,000  Level Kansas City Center
05:43PM 35.8803 -95.8989 196° South 434 499 36,000  Level Kansas City Center
05:44PM 35.7650 -95.9372 195° South 431 496 36,000  Level Kansas City Center
05:45PM 35.6258 -95.9869 196° South 431 496 36,000  Level Kansas City Center
05:46PM 35.5078 -96.0272 196° South 437 503 36,000  Level Kansas City Center
05:47PM 35.3847 -96.0692 196° South 441 507 36,000  Level Kansas City Center
05:48PM 35.2653 -96.1114 196° South 443 510 36,000  Level Kansas City Center
05:49PM 35.1392 -96.1544 196° South 437 503 36,000  Level Fort Worth Center
05:50PM 35.0208 -96.1967 196° South 437 503 36,000  Level Fort Worth Center
05:51PM 34.9044 -96.2336 195° South 437 503 36,000  Level Fort Worth Center
05:52PM 34.7900 -96.2758 197° South 437 503 36,000  Level Fort Worth Center
05:53PM 34.6733 -96.3128 195° South 437 503 36,000  Level Fort Worth Center
05:54PM 34.5569 -96.3544 196° South 437 503 36,000  Level Fort Worth Center
05:55PM 34.4383 -96.3936 195° South 437 503 36,000  Level Fort Worth Center
05:56PM 34.3239 -96.4303 195° South 437 503 36,000  Level Fort Worth Center
05:57PM 34.2075 -96.4717 196° South 437 503 36,000  Level Fort Worth Center
05:58PM 34.0825 -96.5183 197° South 437 503 36,000  Level Fort Worth Center
05:59PM 33.9700 -96.5519 194° South 426 490 36,000  Level Fort Worth Center
06:00PM 33.8556 -96.5906 196° South 432 497 36,000  Level Fort Worth Center
06:01PM 33.7389 -96.6292 195° South 437 503 36,000  Level Fort Worth Center
06:02PM 33.6222 -96.6675 195° South 432 497 36,000  Level Fort Worth Center
06:03PM 33.5056 -96.7033 194° South 432 497 36,000  Level Fort Worth Center
06:04PM 33.3889 -96.7417 195° South 437 503 36,000  Level Fort Worth Center
06:05PM 33.2744 -96.7797 196° South 437 503 36,000  Level Fort Worth Center
06:06PM 33.1575 -96.8156 194° South 432 497 36,000  Level Fort Worth Center
06:07PM 33.0533 -96.8508 196° South 432 497 36,000  Level Fort Worth Center
06:08PM 32.9242 -96.8936 196° South 437 503 36,000  Level Fort Worth Center
06:09PM 32.8133 -96.8794 174° South 437 503 36,000  Level Fort Worth Center
06:10PM 32.6756 -96.8433 168° South 454 522 36,000  Level Fort Worth Center
06:11PM 32.5481 -96.8072 167° South 460 529 36,000  Level Fort Worth Center
06:12PM 32.4206 -96.7711 167° South 471 542 36,000  Level Fort Worth Center
06:13PM 32.2950 -96.7325 165° South 471 542 36,000  Level Fort Worth Center
06:14PM 32.1694 -96.6992 167° South 471 542 36,000  Level Fort Worth Center
06:15PM 32.0442 -96.6633 166° South 471 542 36,000  Level Fort Worth Center
06:16PM 31.9186 -96.6278 166° South 465 535 36,000 -300 Level Fort Worth Center
06:17PM 31.7931 -96.5897 166° South 465 535 35,500 -1,620 Descending Fort Worth Center
06:19PM 31.5967 -96.5375 167° South 468 539 31,800 -3,000 Descending Houston Center
06:20PM 31.4458 -96.4889 165° South 469 540 27,400 -3,180 Descending Houston Center
06:21PM 31.3156 -96.4386 162° South 485 558 25,300 -1,680 Descending Houston Center
06:22PM 31.1861 -96.3908 162° South 489 563 24,000 -720 Descending Houston Center
06:23PM 31.0617 -96.3450 162° South 476 548 23,900 -1,020 Descending Houston Center
06:24PM 30.9367 -96.2978 162° South 474 545 22,000 -2,100 Descending Houston Center
06:25PM 30.8211 -96.2444 158° South 460 529 19,600 -2,760 Descending Houston Center
06:26PM 30.7256 -96.1519 140° Southeast 442 509 16,900 -3,060 Descending Houston Center
06:27PM 30.6192 -96.0375 137° Southeast 433 498 13,300 -2,880 Descending Houston Center
06:28PM 30.5342 -95.9481 138° Southeast 375 432 10,500 -1,620 Descending Houston Center
06:29PM 30.4597 -95.8697 138° Southeast 371 427 10,000 -480 Descending Houston Center
06:30PM 30.3761 -95.8211 153° Southeast 279 321 9,600 -900 Descending Houston Center
06:31PM 30.2975 -95.8108 174° South 285 328 8,300 -1,320 Descending Houston Center
06:32PM 30.2167 -95.7986 173° South 281 323 7,000 -1,320 Descending Houston Center
06:33PM 30.1597 -95.7472 142° Southeast 269 310 5,700 -1,200 Descending Houston Center
06:34PM 30.1097 -95.6806 131° Southeast 258 297 4,600 -1,080 Descending Houston Center
06:35PM 30.0633 -95.6125 128° Southeast 261 300 3,500 -840 Descending Houston Center
06:36PM 30.0181 -95.5492 130° Southeast 258 297 3,000 -840 Descending Houston Center
06:37PM 30.0069 -95.4708 99° East 243 280 1,900 -1,080 Descending Houston Center
06:38PM 30.0072 -95.4056 90° East 161 185 900 -1,020 Descending Houston Center